Time;durP1;ratioP1;P1;durP2;ratioP2;P2;SDS_P1;SDS_P2;PMS_P1;PMS_P2;Temp;Humidity;BMP_temperature;BMP_pressure;BME280_temperature;BME280_humidity;BME280_pressure;Samples;Min_cycle;Max_cycle;Signal;HPM_P1;HPM_P2
2022/05/27 00:00:04;;;;;;;5.55;3.55;;;;;;;;;;5053659;28;20084;-31
2022/05/27 00:02:31;;;;;;;5.25;3.47;;;;;;;;;;5053506;28;20124;-31
2022/05/27 00:04:57;;;;;;;7.85;3.67;;;;;;;;;;5053891;28;20068;-32
2022/05/27 00:07:23;;;;;;;7.07;3.90;;;;;;;;;;5053035;28;20084;-30
2022/05/27 00:09:49;;;;;;;6.22;3.58;;;;;;;;;;5035710;28;20045;-31
2022/05/27 00:12:15;;;;;;;5.55;3.55;;;;;;;;;;5035205;28;20380;-31
2022/05/27 00:14:41;;;;;;;4.95;3.35;;;;;;;;;;5054163;28;20037;-31
2022/05/27 00:17:07;;;;;;;7.13;3.50;;;;;;;;;;5054987;28;20040;-31
2022/05/27 00:19:33;;;;;;;7.35;3.30;;;;;;;;;;5055192;28;20052;-32
2022/05/27 00:21:59;;;;;;;4.50;3.13;;;;;;;;;;5054542;28;20079;-34
2022/05/27 00:24:25;;;;;;;4.40;3.10;;;;;;;;;;5053166;28;20414;-31
2022/05/27 00:26:52;;;;;;;6.25;3.17;;;;;;;;;;5042346;28;20045;-31
2022/05/27 00:29:18;;;;;;;5.60;3.50;;;;;;;;;;5051287;28;20040;-31
2022/05/27 00:31:44;;;;;;;4.63;3.20;;;;;;;;;;5053187;28;20190;-31
2022/05/27 00:34:10;;;;;;;7.80;3.45;;;;;;;;;;5053131;28;20457;-30
2022/05/27 00:36:37;;;;;;;5.50;3.35;;;;;;;;;;5047445;28;20033;-31
2022/05/27 00:39:03;;;;;;;6.18;3.60;;;;;;;;;;5032941;28;20041;-31
2022/05/27 00:41:30;;;;;;;6.97;3.88;;;;;;;;;;5032813;28;20049;-31
2022/05/27 00:43:56;;;;;;;7.15;3.83;;;;;;;;;;5033182;28;20049;-30
2022/05/27 00:46:26;;;;;;;4.07;3.08;;;;;;;;;;5051557;28;20124;-31
2022/05/27 00:48:53;;;;;;;6.65;3.67;;;;;;;;;;5054414;28;20095;-28
2022/05/27 00:51:24;;;;;;;6.38;3.70;;;;;;;;;;5054108;28;20530;-28
2022/05/27 00:54:19;;;;;;;8.45;3.67;;;;;;;;;;5053784;28;20045;-28
2022/05/27 00:56:47;;;;;;;4.43;3.15;;;;;;;;;;5036344;28;20049;-28
2022/05/27 00:59:32;;;;;;;5.30;3.42;;;;;;;;;;5052994;28;20036;-28
2022/05/27 01:01:59;;;;;;;5.53;3.17;;;;;;;;;;5053184;28;20041;-28
2022/05/27 01:04:26;;;;;;;5.75;3.53;;;;;;;;;;5053197;28;20041;-28
2022/05/27 01:06:52;;;;;;;5.63;3.50;;;;;;;;;;5052979;28;20052;-28
2022/05/27 01:09:18;;;;;;;6.50;3.88;;;;;;;;;;5052859;28;20128;-29
2022/05/27 01:11:53;;;;;;;6.72;4.30;;;;;;;;;;5052882;28;20486;-29
2022/05/27 01:14:32;;;;;;;5.65;3.53;;;;;;;;;;5052916;28;20094;-29
2022/05/27 01:17:07;;;;;;;5.97;4.57;;;;;;;;;;5052723;28;20037;-29
2022/05/27 01:22:28;;;;;;;6.93;4.95;;;;;;;;;;5053297;28;20045;-29
2022/05/27 01:25:26;;;;;;;7.43;4.70;;;;;;;;;;5053260;28;20033;-29
2022/05/27 01:28:12;;;;;;;6.22;4.13;;;;;;;;;;4998493;28;20144;-28
2022/05/27 01:30:47;;;;;;;6.75;4.53;;;;;;;;;;5053131;28;20049;-28
2022/05/27 01:33:13;;;;;;;9.18;4.93;;;;;;;;;;5053587;28;20037;-29
2022/05/27 01:35:39;;;;;;;7.35;5.05;;;;;;;;;;5053217;28;20094;-28
2022/05/27 01:38:24;;;;;;;6.22;4.70;;;;;;;;;;5053363;28;20052;-28
2022/05/27 01:40:50;;;;;;;5.28;4.78;;;;;;;;;;5052962;28;20045;-28
2022/05/27 01:43:19;;;;;;;7.78;5.20;;;;;;;;;;5052823;28;20099;-28
2022/05/27 01:45:52;;;;;;;6.55;5.45;;;;;;;;;;5052811;28;20045;-28
2022/05/27 01:48:18;;;;;;;10.40;5.95;;;;;;;;;;5034881;28;20041;-28
2022/05/27 01:50:55;;;;;;;7.70;5.47;;;;;;;;;;5034482;28;20041;-29
2022/05/27 01:53:34;;;;;;;8.82;5.65;;;;;;;;;;5053093;28;20041;-28
2022/05/27 01:56:12;;;;;;;9.68;5.80;;;;;;;;;;5052212;28;20033;-28
2022/05/27 01:58:42;;;;;;;10.15;5.68;;;;;;;;;;5052237;28;20509;-28
2022/05/27 02:01:11;;;;;;;9.95;5.93;;;;;;;;;;5052222;28;20041;-28
2022/05/27 02:03:42;;;;;;;12.52;6.07;;;;;;;;;;5052510;28;20411;-29
2022/05/27 02:06:13;;;;;;;8.25;5.75;;;;;;;;;;5034275;28;20041;-28
2022/05/27 02:08:42;;;;;;;10.77;5.72;;;;;;;;;;5052347;28;20422;-28
2022/05/27 02:11:13;;;;;;;10.50;5.93;;;;;;;;;;5052572;28;20066;-29
2022/05/27 02:13:41;;;;;;;11.63;6.25;;;;;;;;;;5052879;28;20434;-29
2022/05/27 02:16:09;;;;;;;9.52;5.88;;;;;;;;;;5052837;28;20150;-29
2022/05/27 02:18:39;;;;;;;10.18;6.07;;;;;;;;;;5052582;28;20036;-28
2022/05/27 02:21:16;;;;;;;12.35;5.82;;;;;;;;;;5052335;28;20483;-29
2022/05/27 02:23:46;;;;;;;14.02;5.80;;;;;;;;;;5052297;28;20410;-28
2022/05/27 02:26:15;;;;;;;13.73;6.35;;;;;;;;;;5052106;28;20402;-29
2022/05/27 02:28:43;;;;;;;11.90;5.60;;;;;;;;;;5052095;28;20127;-28
2022/05/27 02:31:14;;;;;;;14.20;6.38;;;;;;;;;;5051743;28;20372;-29
2022/05/27 02:36:43;;;;;;;13.20;6.15;;;;;;;;;;5051983;28;20041;-29
2022/05/27 02:39:10;;;;;;;11.43;6.00;;;;;;;;;;5051891;28;20033;-29
2022/05/27 02:41:38;;;;;;;10.45;6.45;;;;;;;;;;5051837;28;20119;-29
2022/05/27 02:44:23;;;;;;;12.48;5.88;;;;;;;;;;5051793;28;20510;-28
2022/05/27 02:46:49;;;;;;;10.23;5.68;;;;;;;;;;5051429;28;20076;-28
2022/05/27 02:49:26;;;;;;;18.83;6.35;;;;;;;;;;5051785;28;20072;-29
2022/05/27 02:51:52;;;;;;;10.23;5.38;;;;;;;;;;5051585;28;20124;-28
2022/05/27 02:54:21;;;;;;;9.57;5.78;;;;;;;;;;5051792;28;20120;-29
2022/05/27 02:56:50;;;;;;;16.42;5.68;;;;;;;;;;5051409;28;20033;-28
2022/05/27 02:59:18;;;;;;;13.88;5.68;;;;;;;;;;5051404;28;20038;-28
2022/05/27 03:01:46;;;;;;;11.23;4.95;;;;;;;;;;5051505;28;20033;-28
2022/05/27 03:04:12;;;;;;;11.23;5.13;;;;;;;;;;5051200;28;20052;-28
2022/05/27 03:06:50;;;;;;;16.08;6.07;;;;;;;;;;5051433;28;20052;-29
2022/05/27 03:09:18;;;;;;;14.60;5.78;;;;;;;;;;5054590;28;20048;-29
2022/05/27 03:12:05;;;;;;;12.40;4.78;;;;;;;;;;5055483;28;20041;-29
2022/05/27 03:14:40;;;;;;;12.73;5.32;;;;;;;;;;5055405;28;20045;-29
2022/05/27 03:17:21;;;;;;;16.20;5.63;;;;;;;;;;5055147;28;20041;-29
2022/05/27 03:19:52;;;;;;;12.82;4.75;;;;;;;;;;5055486;28;20382;-28
2022/05/27 03:22:36;;;;;;;14.18;4.70;;;;;;;;;;5055311;28;20475;-28
2022/05/27 03:25:02;;;;;;;13.93;4.95;;;;;;;;;;5055292;28;20041;-28
2022/05/27 03:27:34;;;;;;;18.08;4.80;;;;;;;;;;5037568;28;20509;-29
2022/05/27 03:30:03;;;;;;;12.07;4.55;;;;;;;;;;5054866;28;20098;-28
2022/05/27 03:32:48;;;;;;;10.70;4.30;;;;;;;;;;5055082;28;20441;-28
2022/05/27 03:35:43;;;;;;;19.90;5.45;;;;;;;;;;5054835;28;20037;-28
2022/05/27 03:38:12;;;;;;;11.77;4.85;;;;;;;;;;5037581;28;20060;-29
2022/05/27 03:40:42;;;;;;;16.15;4.88;;;;;;;;;;5036962;28;20041;-29
2022/05/27 03:43:09;;;;;;;16.83;5.75;;;;;;;;;;5054844;28;20041;-30
2022/05/27 03:45:47;;;;;;;13.35;4.90;;;;;;;;;;5055019;28;20530;-29
2022/05/27 03:48:13;;;;;;;12.90;4.80;;;;;;;;;;5054574;28;20124;-28
2022/05/27 03:50:39;;;;;;;16.35;5.45;;;;;;;;;;5054494;28;20037;-29
2022/05/27 03:53:05;;;;;;;13.48;5.28;;;;;;;;;;5054653;28;20469;-27
2022/05/27 03:55:31;;;;;;;10.48;4.43;;;;;;;;;;5054713;28;20048;-29
2022/05/27 03:57:57;;;;;;;13.10;5.10;;;;;;;;;;5054243;28;20041;-29
2022/05/27 04:00:24;;;;;;;12.88;4.55;;;;;;;;;;5054289;28;20048;-29
2022/05/27 04:02:50;;;;;;;12.82;5.10;;;;;;;;;;5054482;28;20045;-29
2022/05/27 04:05:17;;;;;;;9.82;4.43;;;;;;;;;;5054125;28;20041;-28
2022/05/27 04:07:44;;;;;;;11.73;4.80;;;;;;;;;;5054463;28;20045;-29
2022/05/27 04:10:10;;;;;;;13.93;4.85;;;;;;;;;;5054177;28;20087;-29
2022/05/27 04:12:36;;;;;;;16.73;5.20;;;;;;;;;;5053967;28;20037;-29
2022/05/27 04:15:03;;;;;;;11.93;4.40;;;;;;;;;;5053958;28;20056;-29
2022/05/27 04:17:32;;;;;;;13.35;4.70;;;;;;;;;;5053892;28;20518;-29
2022/05/27 04:19:59;;;;;;;14.23;4.75;;;;;;;;;;5053035;28;20044;-29
2022/05/27 04:22:26;;;;;;;11.63;4.50;;;;;;;;;;5053883;28;20045;-28
2022/05/27 04:24:52;;;;;;;14.85;4.35;;;;;;;;;;5054414;28;20045;-29
2022/05/27 04:27:19;;;;;;;18.33;4.30;;;;;;;;;;5050741;28;20099;-29
2022/05/27 04:29:49;;;;;;;17.67;5.05;;;;;;;;;;5045716;28;20047;-31
2022/05/27 04:32:16;;;;;;;14.15;4.32;;;;;;;;;;5039078;28;20064;-31
2022/05/27 04:34:42;;;;;;;11.65;4.18;;;;;;;;;;5044068;28;20033;-32
2022/05/27 04:37:09;;;;;;;16.58;5.13;;;;;;;;;;5036562;28;20111;-32
2022/05/27 04:39:35;;;;;;;15.57;4.55;;;;;;;;;;5032888;28;20140;-30
2022/05/27 04:42:01;;;;;;;14.23;4.13;;;;;;;;;;5051924;28;20037;-32
2022/05/27 04:44:27;;;;;;;16.88;5.10;;;;;;;;;;5052046;28;20037;-31
2022/05/27 04:46:53;;;;;;;11.80;4.55;;;;;;;;;;5051658;28;20047;-33
2022/05/27 04:52:05;;;;;;;13.52;4.32;;;;;;;;;;5050053;28;20123;-30
2022/05/27 04:54:31;;;;;;;12.88;4.03;;;;;;;;;;5038488;28;20360;-33
2022/05/27 04:56:58;;;;;;;17.27;4.97;;;;;;;;;;5053161;28;20048;-31
2022/05/27 04:59:24;;;;;;;13.05;4.10;;;;;;;;;;5052402;28;20087;-31
2022/05/27 05:01:51;;;;;;;9.52;3.92;;;;;;;;;;5052664;28;20525;-32
2022/05/27 05:04:17;;;;;;;16.75;5.00;;;;;;;;;;5052800;28;20143;-32
2022/05/27 05:06:43;;;;;;;9.95;3.75;;;;;;;;;;5052448;28;20415;-32
2022/05/27 05:09:10;;;;;;;12.98;3.85;;;;;;;;;;5043356;28;20109;-31
2022/05/27 05:11:36;;;;;;;11.23;3.60;;;;;;;;;;5052711;28;20457;-31
2022/05/27 05:14:03;;;;;;;12.43;4.38;;;;;;;;;;5044205;28;20048;-31
2022/05/27 05:16:29;;;;;;;14.93;4.47;;;;;;;;;;5043336;28;20570;-31
2022/05/27 05:18:55;;;;;;;15.43;4.32;;;;;;;;;;5047034;28;20043;-31
2022/05/27 05:21:21;;;;;;;15.85;3.63;;;;;;;;;;5041657;28;20527;-32
2022/05/27 05:23:48;;;;;;;9.15;3.63;;;;;;;;;;5040259;28;20051;-30
2022/05/27 05:26:14;;;;;;;11.02;3.83;;;;;;;;;;5051979;28;20091;-31
2022/05/27 05:28:40;;;;;;;9.32;3.60;;;;;;;;;;5049717;28;20558;-31
2022/05/27 05:31:08;;;;;;;10.10;3.75;;;;;;;;;;5034846;28;20092;-32
2022/05/27 05:33:34;;;;;;;7.30;3.08;;;;;;;;;;5035170;28;20037;-32
2022/05/27 05:36:00;;;;;;;9.45;3.28;;;;;;;;;;5052087;28;20037;-31
2022/05/27 05:38:27;;;;;;;10.95;3.60;;;;;;;;;;5051609;28;20040;-32
2022/05/27 05:40:53;;;;;;;12.30;3.08;;;;;;;;;;5051871;28;20048;-31
2022/05/27 05:43:19;;;;;;;13.10;4.28;;;;;;;;;;5050993;28;20040;-31
2022/05/27 05:45:46;;;;;;;11.68;3.33;;;;;;;;;;5051187;28;20125;-30
2022/05/27 05:48:12;;;;;;;13.15;3.33;;;;;;;;;;5051470;28;20403;-31
2022/05/27 05:50:38;;;;;;;8.60;3.47;;;;;;;;;;5051756;28;20511;-32
2022/05/27 05:53:04;;;;;;;9.45;3.15;;;;;;;;;;5051676;28;20318;-32
2022/05/27 05:55:32;;;;;;;11.90;2.97;;;;;;;;;;5051605;28;20227;-30
2022/05/27 05:57:58;;;;;;;9.13;2.88;;;;;;;;;;5050498;28;21229;-33
2022/05/27 06:00:25;;;;;;;10.80;2.97;;;;;;;;;;5051351;28;20041;-32
2022/05/27 06:02:51;;;;;;;6.05;2.70;;;;;;;;;;5051737;28;20328;-30
2022/05/27 06:05:18;;;;;;;13.10;3.30;;;;;;;;;;5051709;28;20524;-30
2022/05/27 06:07:45;;;;;;;12.35;2.90;;;;;;;;;;5050896;28;20120;-31
2022/05/27 06:10:12;;;;;;;9.05;3.20;;;;;;;;;;5051165;28;20048;-30
2022/05/27 06:12:38;;;;;;;9.18;3.22;;;;;;;;;;5050378;28;20059;-31
2022/05/27 06:15:07;;;;;;;11.25;3.25;;;;;;;;;;5050908;28;20050;-30
2022/05/27 06:17:33;;;;;;;8.93;3.05;;;;;;;;;;5050435;28;20414;-33
2022/05/27 06:19:59;;;;;;;8.52;2.95;;;;;;;;;;5051010;28;20041;-31
2022/05/27 06:22:25;;;;;;;9.63;3.00;;;;;;;;;;5050377;28;20565;-31
2022/05/27 06:24:51;;;;;;;8.30;2.80;;;;;;;;;;5051302;28;20115;-32
2022/05/27 06:27:18;;;;;;;8.35;3.17;;;;;;;;;;5050784;28;20102;-31
2022/05/27 06:35:13;;;;;;;10.65;2.83;;;;;;;;;;5051143;28;20132;-32
2022/05/27 06:37:40;;;;;;;14.38;3.47;;;;;;;;;;5050836;28;20045;-31
2022/05/27 06:40:06;;;;;;;10.82;3.05;;;;;;;;;;5051479;28;20525;-30
2022/05/27 06:42:32;;;;;;;8.02;2.72;;;;;;;;;;5049785;28;20415;-32
2022/05/27 06:44:59;;;;;;;11.40;3.30;;;;;;;;;;5032969;28;20466;-31
2022/05/27 06:47:25;;;;;;;10.93;3.40;;;;;;;;;;5051197;28;20124;-33
2022/05/27 06:49:51;;;;;;;13.18;3.40;;;;;;;;;;5051977;28;20095;-31
2022/05/27 06:52:17;;;;;;;10.00;3.13;;;;;;;;;;5050548;28;20422;-31
2022/05/27 06:54:44;;;;;;;10.63;3.42;;;;;;;;;;5051595;28;20047;-31
2022/05/27 06:57:10;;;;;;;12.82;2.95;;;;;;;;;;5051297;28;20511;-31
2022/05/27 06:59:37;;;;;;;13.30;2.85;;;;;;;;;;5050597;28;20127;-31
2022/05/27 07:02:03;;;;;;;11.18;3.00;;;;;;;;;;5050830;28;20444;-34
2022/05/27 07:04:29;;;;;;;10.82;3.30;;;;;;;;;;5050507;28;20088;-33
2022/05/27 07:06:57;;;;;;;10.48;2.80;;;;;;;;;;5049591;28;20049;-32
2022/05/27 07:09:24;;;;;;;12.35;3.30;;;;;;;;;;5031945;28;20082;-31
2022/05/27 07:11:51;;;;;;;12.70;3.08;;;;;;;;;;5050499;28;20037;-32
2022/05/27 07:14:17;;;;;;;10.80;2.85;;;;;;;;;;5050398;28;20037;-33
2022/05/27 07:16:44;;;;;;;12.55;2.92;;;;;;;;;;5050565;28;20491;-32
2022/05/27 07:19:10;;;;;;;12.35;3.20;;;;;;;;;;5049931;28;20080;-30
2022/05/27 07:21:39;;;;;;;10.02;3.35;;;;;;;;;;5050230;28;20040;-31
2022/05/27 07:24:05;;;;;;;10.05;3.03;;;;;;;;;;5030602;28;20095;-33
2022/05/27 07:26:31;;;;;;;9.32;2.85;;;;;;;;;;5030472;28;20088;-32
2022/05/27 07:28:58;;;;;;;6.32;2.67;;;;;;;;;;5033703;28;20564;-31
2022/05/27 07:31:24;;;;;;;9.98;2.45;;;;;;;;;;5032018;28;20041;-35
2022/05/27 07:33:50;;;;;;;6.28;2.78;;;;;;;;;;5030901;28;20120;-31
2022/05/27 07:36:16;;;;;;;7.53;3.05;;;;;;;;;;5031019;28;20073;-33
2022/05/27 07:38:42;;;;;;;10.95;2.90;;;;;;;;;;5048998;28;20044;-32
2022/05/27 07:41:08;;;;;;;8.95;3.03;;;;;;;;;;5050044;28;20044;-32
2022/05/27 07:43:34;;;;;;;12.25;2.70;;;;;;;;;;5050397;28;20110;-33
2022/05/27 07:46:00;;;;;;;10.60;2.80;;;;;;;;;;5050219;28;20045;-32
2022/05/27 07:48:26;;;;;;;9.35;3.58;;;;;;;;;;5049043;28;20033;-31
2022/05/27 07:50:52;;;;;;;8.15;2.72;;;;;;;;;;5050062;28;20041;-30
2022/05/27 07:53:19;;;;;;;10.90;3.08;;;;;;;;;;5050071;28;20033;-30
2022/05/27 07:55:45;;;;;;;10.68;3.13;;;;;;;;;;5052091;28;20048;-32
2022/05/27 07:58:11;;;;;;;9.05;2.58;;;;;;;;;;5052748;28;20116;-31
2022/05/27 08:00:38;;;;;;;6.78;2.85;;;;;;;;;;5053575;28;20145;-32
2022/05/27 08:03:04;;;;;;;7.80;2.72;;;;;;;;;;5053314;28;20475;-32
2022/05/27 08:05:32;;;;;;;11.10;2.85;;;;;;;;;;5053513;28;20084;-32
2022/05/27 08:07:59;;;;;;;8.00;2.78;;;;;;;;;;5052282;28;20114;-29
2022/05/27 08:10:27;;;;;;;6.82;2.60;;;;;;;;;;5053130;28;20041;-33
2022/05/27 08:12:53;;;;;;;7.18;2.70;;;;;;;;;;5052843;28;20033;-31
2022/05/27 08:15:19;;;;;;;10.55;3.17;;;;;;;;;;5053065;28;20091;-31
2022/05/27 08:17:45;;;;;;;5.57;2.60;;;;;;;;;;5052722;28;20045;-32
2022/05/27 08:20:14;;;;;;;13.40;3.35;;;;;;;;;;5053527;28;20051;-31
2022/05/27 08:22:40;;;;;;;7.05;2.58;;;;;;;;;;5053640;28;20058;-30
2022/05/27 08:25:07;;;;;;;9.95;3.08;;;;;;;;;;5053399;28;20049;-30
2022/05/27 08:27:33;;;;;;;6.78;2.40;;;;;;;;;;5052544;28;20045;-31
2022/05/27 08:29:59;;;;;;;12.38;2.70;;;;;;;;;;5052410;28;20410;-32
2022/05/27 08:32:25;;;;;;;7.28;2.17;;;;;;;;;;5053700;28;20102;-32
2022/05/27 08:40:21;;;;;;;6.78;2.20;;;;;;;;;;5033925;28;20041;-32
2022/05/27 08:43:12;;;;;;;6.72;2.38;;;;;;;;;;5033371;28;20056;-31
2022/05/27 08:45:50;;;;;;;5.20;2.45;;;;;;;;;;5033301;28;20410;-34
2022/05/27 08:48:17;;;;;;;7.78;2.65;;;;;;;;;;5036023;28;20112;-31
2022/05/27 08:50:49;;;;;;;7.13;2.13;;;;;;;;;;5052941;28;20396;-31
2022/05/27 08:53:33;;;;;;;5.20;1.98;;;;;;;;;;5052788;28;20041;-30
2022/05/27 09:01:30;;;;;;;5.35;2.15;;;;;;;;;;5052525;28;20348;-31
2022/05/27 09:03:59;;;;;;;6.72;2.55;;;;;;;;;;5052886;28;20120;-30
2022/05/27 09:06:34;;;;;;;7.78;2.38;;;;;;;;;;5052340;28;20033;-31
2022/05/27 09:09:02;;;;;;;6.28;1.83;;;;;;;;;;5052089;28;20045;-32
2022/05/27 09:11:47;;;;;;;7.22;2.33;;;;;;;;;;5051907;28;20095;-30
2022/05/27 09:14:14;;;;;;;6.60;2.30;;;;;;;;;;5051270;28;20072;-31
2022/05/27 09:16:43;;;;;;;10.52;1.95;;;;;;;;;;5052382;28;20040;-34
2022/05/27 09:19:13;;;;;;;7.93;2.67;;;;;;;;;;5051977;28;20037;-35
2022/05/27 09:21:58;;;;;;;8.38;2.20;;;;;;;;;;5051803;28;20040;-32
2022/05/27 09:24:36;;;;;;;6.00;1.80;;;;;;;;;;5051620;28;20301;-33
2022/05/27 09:27:08;;;;;;;8.38;2.03;;;;;;;;;;5052296;28;20494;-32
2022/05/27 09:29:34;;;;;;;7.18;2.00;;;;;;;;;;5051715;28;20232;-33
2022/05/27 09:32:16;;;;;;;5.03;2.03;;;;;;;;;;5051763;28;20425;-32
2022/05/27 09:34:43;;;;;;;5.10;2.05;;;;;;;;;;5051388;28;20257;-31
2022/05/27 09:37:11;;;;;;;6.13;2.28;;;;;;;;;;5052001;28;20453;-30
2022/05/27 09:39:37;;;;;;;3.10;1.60;;;;;;;;;;5051028;28;20072;-32
2022/05/27 09:42:16;;;;;;;8.60;2.45;;;;;;;;;;5051582;28;20047;-34
2022/05/27 09:44:48;;;;;;;7.30;2.22;;;;;;;;;;5051762;28;20045;-32
2022/05/27 09:47:15;;;;;;;6.38;1.88;;;;;;;;;;5051356;28;20581;-31
2022/05/27 09:49:41;;;;;;;6.75;2.60;;;;;;;;;;5050920;28;20051;-29
2022/05/27 09:52:07;;;;;;;6.57;2.10;;;;;;;;;;5051322;28;20045;-31
2022/05/27 09:54:55;;;;;;;5.80;2.05;;;;;;;;;;5051548;28;20437;-30
2022/05/27 09:57:25;;;;;;;6.18;1.92;;;;;;;;;;5051145;28;20072;-32
2022/05/27 09:59:54;;;;;;;5.43;2.47;;;;;;;;;;5050514;28;20388;-31
2022/05/27 10:02:34;;;;;;;6.05;2.35;;;;;;;;;;5051577;28;20103;-32
2022/05/27 10:05:19;;;;;;;8.52;1.77;;;;;;;;;;5051282;28;20562;-32
2022/05/27 10:07:51;;;;;;;3.85;1.60;;;;;;;;;;5032869;28;20082;-33
2022/05/27 10:10:26;;;;;;;5.07;1.80;;;;;;;;;;5050415;28;20048;-34
2022/05/27 10:12:53;;;;;;;6.82;2.22;;;;;;;;;;5050967;28;20134;-33
2022/05/27 10:15:28;;;;;;;5.32;2.00;;;;;;;;;;5051057;28;20041;-33
2022/05/27 10:17:54;;;;;;;6.57;2.25;;;;;;;;;;5050023;28;20550;-30
2022/05/27 10:20:22;;;;;;;6.20;2.10;;;;;;;;;;5050850;28;20068;-32
2022/05/27 10:23:17;;;;;;;5.60;1.75;;;;;;;;;;5050743;28;20090;-29
2022/05/27 10:25:44;;;;;;;5.75;1.80;;;;;;;;;;5037568;28;20191;-32
2022/05/27 10:28:11;;;;;;;5.90;2.00;;;;;;;;;;5050844;28;20041;-32
2022/05/27 10:30:51;;;;;;;5.32;1.88;;;;;;;;;;5050108;28;20037;-32
2022/05/27 10:33:22;;;;;;;4.97;1.88;;;;;;;;;;5050838;28;20036;-31
2022/05/27 10:35:50;;;;;;;5.93;2.30;;;;;;;;;;5044181;28;20037;-32
2022/05/27 10:38:22;;;;;;;7.97;2.30;;;;;;;;;;5029943;28;20045;-31
2022/05/27 10:40:55;;;;;;;8.68;2.30;;;;;;;;;;5030867;28;20051;-31
2022/05/27 10:43:28;;;;;;;9.30;2.58;;;;;;;;;;5035613;28;20502;-30
2022/05/27 10:45:55;;;;;;;5.38;2.60;;;;;;;;;;5049416;28;20045;-33
2022/05/27 10:48:24;;;;;;;5.80;2.00;;;;;;;;;;5050222;28;20048;-33
2022/05/27 10:50:56;;;;;;;4.60;1.65;;;;;;;;;;5050324;28;20044;-32
2022/05/27 10:53:37;;;;;;;6.32;2.15;;;;;;;;;;5050317;28;20041;-33
2022/05/27 10:56:21;;;;;;;5.97;2.28;;;;;;;;;;5041671;28;20116;-32
2022/05/27 11:02:15;;;;;;;7.63;2.30;;;;;;;;;;5031431;28;20043;-32
2022/05/27 11:05:08;;;;;;;4.97;2.22;;;;;;;;;;5049550;28;20102;-31
2022/05/27 11:07:53;;;;;;;5.55;2.00;;;;;;;;;;5030540;28;20065;-32
2022/05/27 11:10:39;;;;;;;8.43;1.90;;;;;;;;;;5043443;28;20048;-31
2022/05/27 11:16:02;;;;;;;7.95;2.22;;;;;;;;;;5048322;28;20120;-30
2022/05/27 11:18:40;;;;;;;6.07;2.17;;;;;;;;;;5050125;28;20068;-33
2022/05/27 11:21:12;;;;;;;7.07;2.03;;;;;;;;;;5048700;28;20506;-30
2022/05/27 11:23:38;;;;;;;6.22;2.13;;;;;;;;;;5049447;28;20577;-31
2022/05/27 11:26:09;;;;;;;6.63;1.90;;;;;;;;;;5049308;28;20041;-31
2022/05/27 11:28:55;;;;;;;5.78;2.03;;;;;;;;;;5049449;28;20045;-32
2022/05/27 11:31:33;;;;;;;6.45;2.30;;;;;;;;;;5028590;28;20111;-33
2022/05/27 11:34:07;;;;;;;6.65;2.30;;;;;;;;;;5054374;28;20036;-32
2022/05/27 11:36:52;;;;;;;5.57;2.30;;;;;;;;;;5052832;28;20037;-33
2022/05/27 11:39:37;;;;;;;7.65;2.00;;;;;;;;;;5053598;28;20120;-31
2022/05/27 11:42:06;;;;;;;7.13;2.10;;;;;;;;;;5053497;28;20089;-34
2022/05/27 11:44:41;;;;;;;6.40;2.60;;;;;;;;;;5053649;28;20122;-34
2022/05/27 11:47:36;;;;;;;7.80;2.90;;;;;;;;;;5053655;28;20246;-34
2022/05/27 11:50:21;;;;;;;6.88;2.20;;;;;;;;;;5053643;28;20067;-34
2022/05/27 11:52:59;;;;;;;9.73;2.33;;;;;;;;;;5053960;28;20044;-31
2022/05/27 11:55:25;;;;;;;8.23;2.20;;;;;;;;;;5053629;28;20040;-30
2022/05/27 11:57:54;;;;;;;8.98;1.88;;;;;;;;;;5051887;28;20140;-33
2022/05/27 12:00:22;;;;;;;5.55;1.85;;;;;;;;;;5052651;28;20037;-35
2022/05/27 12:02:58;;;;;;;5.90;1.80;;;;;;;;;;5052944;28;20392;-32
2022/05/27 12:05:26;;;;;;;4.70;1.70;;;;;;;;;;5053771;28;20040;-34
2022/05/27 12:07:58;;;;;;;3.28;1.35;;;;;;;;;;5053083;28;20461;-32
2022/05/27 12:10:34;;;;;;;7.93;1.80;;;;;;;;;;5050848;28;20426;-32
2022/05/27 12:13:19;;;;;;;6.95;2.53;;;;;;;;;;5044296;28;20053;-33
2022/05/27 12:15:53;;;;;;;6.20;1.70;;;;;;;;;;5053286;28;20033;-32
2022/05/27 12:18:40;;;;;;;11.23;2.45;;;;;;;;;;5053206;28;20401;-31
2022/05/27 12:21:08;;;;;;;7.53;2.30;;;;;;;;;;5045743;28;20036;-30
2022/05/27 12:23:35;;;;;;;7.13;2.10;;;;;;;;;;5053011;28;20084;-31
2022/05/27 12:26:02;;;;;;;7.78;2.17;;;;;;;;;;5053073;28;20502;-30
2022/05/27 12:28:30;;;;;;;8.65;2.33;;;;;;;;;;5053452;28;20059;-32
2022/05/27 12:30:57;;;;;;;8.90;2.45;;;;;;;;;;5053216;28;20048;-33
2022/05/27 12:33:25;;;;;;;7.15;2.20;;;;;;;;;;5053432;28;20398;-33
2022/05/27 12:36:06;;;;;;;7.18;2.53;;;;;;;;;;5049238;28;20599;-33
2022/05/27 12:38:36;;;;;;;6.10;2.30;;;;;;;;;;5049056;28;20086;-34
2022/05/27 12:41:06;;;;;;;7.72;1.92;;;;;;;;;;5052412;28;20183;-32
2022/05/27 12:43:36;;;;;;;5.68;1.92;;;;;;;;;;5053212;28;20477;-32
2022/05/27 12:46:02;;;;;;;9.57;2.60;;;;;;;;;;5048558;28;20429;-33
2022/05/27 12:48:30;;;;;;;7.03;1.98;;;;;;;;;;5052711;28;20041;-33
2022/05/27 12:50:58;;;;;;;6.88;2.28;;;;;;;;;;5052809;28;20041;-33
2022/05/27 12:53:43;;;;;;;10.32;2.30;;;;;;;;;;5052522;28;20033;-31
2022/05/27 13:02:16;;;;;;;7.93;2.08;;;;;;;;;;5033681;28;20068;-32
2022/05/27 13:04:54;;;;;;;11.20;2.63;;;;;;;;;;5051603;28;20048;-32
2022/05/27 13:07:36;;;;;;;8.68;2.60;;;;;;;;;;5051774;28;20051;-32
2022/05/27 13:10:17;;;;;;;8.77;2.30;;;;;;;;;;5051628;28;20043;-32
2022/05/27 13:12:52;;;;;;;7.85;2.50;;;;;;;;;;5051473;28;20094;-31
2022/05/27 13:15:24;;;;;;;6.60;2.47;;;;;;;;;;5052837;28;20045;-33
2022/05/27 13:17:52;;;;;;;5.35;1.75;;;;;;;;;;5051125;28;20094;-34
2022/05/27 13:20:19;;;;;;;9.23;2.63;;;;;;;;;;5052026;28;20041;-32
2022/05/27 13:23:09;;;;;;;5.53;2.20;;;;;;;;;;5051643;28;20076;-34
2022/05/27 13:25:39;;;;;;;9.40;2.53;;;;;;;;;;5052283;28;20041;-31
2022/05/27 13:28:25;;;;;;;8.48;2.40;;;;;;;;;;5051677;28;20080;-33
2022/05/27 13:30:51;;;;;;;8.63;2.60;;;;;;;;;;5051232;28;20170;-32
2022/05/27 13:33:25;;;;;;;8.73;2.38;;;;;;;;;;5052129;28;20128;-33
2022/05/27 13:35:52;;;;;;;8.57;2.83;;;;;;;;;;5052059;28;20037;-32
2022/05/27 13:38:23;;;;;;;7.18;2.20;;;;;;;;;;5051383;28;20171;-33
2022/05/27 13:40:49;;;;;;;7.35;2.17;;;;;;;;;;5052255;28;20120;-33
2022/05/27 13:43:19;;;;;;;10.32;2.53;;;;;;;;;;5034176;28;20508;-33
2022/05/27 13:45:53;;;;;;;9.68;2.40;;;;;;;;;;5051516;28;20514;-32
2022/05/27 13:48:38;;;;;;;8.30;2.22;;;;;;;;;;5051435;28;20048;-34
2022/05/27 13:51:06;;;;;;;7.47;2.08;;;;;;;;;;5051288;28;20040;-34
2022/05/27 13:53:33;;;;;;;8.73;2.45;;;;;;;;;;5052003;28;20445;-30
2022/05/27 13:56:08;;;;;;;7.03;2.08;;;;;;;;;;5052128;28;20032;-29
2022/05/27 13:58:36;;;;;;;4.47;1.90;;;;;;;;;;5051926;28;20045;-30
2022/05/27 14:01:04;;;;;;;8.20;2.50;;;;;;;;;;5051929;28;20115;-31
2022/05/27 14:03:34;;;;;;;4.30;2.00;;;;;;;;;;5051779;28;20055;-30
2022/05/27 14:06:02;;;;;;;6.43;2.38;;;;;;;;;;5051881;28;20494;-30
2022/05/27 14:08:35;;;;;;;5.40;2.17;;;;;;;;;;5051689;28;20052;-29
2022/05/27 14:11:06;;;;;;;7.00;2.37;;;;;;;;;;5051718;28;20403;-30
2022/05/27 14:13:33;;;;;;;9.98;2.78;;;;;;;;;;5051907;28;20076;-29
2022/05/27 14:15:59;;;;;;;6.90;2.03;;;;;;;;;;5051776;28;20052;-31
2022/05/27 14:18:32;;;;;;;9.52;2.65;;;;;;;;;;5051326;28;20119;-30
2022/05/27 14:23:46;;;;;;;7.75;2.83;;;;;;;;;;5051875;28;20627;-29
2022/05/27 14:26:13;;;;;;;9.15;2.88;;;;;;;;;;5051813;28;20051;-30
2022/05/27 14:28:41;;;;;;;7.80;2.08;;;;;;;;;;5051559;28;20041;-31
2022/05/27 14:31:16;;;;;;;8.80;2.60;;;;;;;;;;5051407;28;20099;-30
2022/05/27 14:33:43;;;;;;;7.13;1.90;;;;;;;;;;5051495;28;20037;-30
2022/05/27 14:36:12;;;;;;;4.85;1.80;;;;;;;;;;5051420;28;20417;-30
2022/05/27 14:38:39;;;;;;;5.68;1.90;;;;;;;;;;5051024;28;20037;-29
2022/05/27 14:41:09;;;;;;;7.07;2.13;;;;;;;;;;5051454;28;20607;-30
2022/05/27 14:43:37;;;;;;;4.95;1.98;;;;;;;;;;5051845;28;20110;-30
2022/05/27 14:46:17;;;;;;;8.75;2.60;;;;;;;;;;5051338;28;20037;-30
2022/05/27 14:48:44;;;;;;;7.95;2.15;;;;;;;;;;5051233;28;20406;-30
2022/05/27 14:51:14;;;;;;;6.57;2.20;;;;;;;;;;5051397;28;20080;-29
2022/05/27 14:53:40;;;;;;;5.45;2.17;;;;;;;;;;5051088;28;20041;-30
2022/05/27 14:56:06;;;;;;;5.78;1.77;;;;;;;;;;5051281;28;20033;-29
2022/05/27 14:58:35;;;;;;;8.15;2.63;;;;;;;;;;5051079;28;20044;-29
2022/05/27 15:01:02;;;;;;;7.65;2.15;;;;;;;;;;5050746;28;20045;-29
2022/05/27 15:03:35;;;;;;;8.30;2.40;;;;;;;;;;5051292;28;20051;-31
2022/05/27 15:06:10;;;;;;;10.60;2.25;;;;;;;;;;5055288;28;20513;-29
2022/05/27 15:08:37;;;;;;;8.07;2.28;;;;;;;;;;5055109;28;20037;-29
2022/05/27 15:11:07;;;;;;;9.10;2.45;;;;;;;;;;5055308;28;20513;-30
2022/05/27 15:13:53;;;;;;;7.05;2.30;;;;;;;;;;5055085;28;20040;-29
2022/05/27 15:16:22;;;;;;;6.68;2.15;;;;;;;;;;5055535;28;20098;-30
2022/05/27 15:19:05;;;;;;;5.13;2.03;;;;;;;;;;5055749;28;20086;-30
2022/05/27 15:21:32;;;;;;;6.22;2.25;;;;;;;;;;5055301;28;20490;-30
2022/05/27 15:24:02;;;;;;;5.53;2.17;;;;;;;;;;5055056;28;20086;-30
2022/05/27 15:35:15;;;;;;;6.03;1.92;;;;;;;;;;5054250;28;20045;-29
2022/05/27 15:37:41;;;;;;;4.13;1.58;;;;;;;;;;5036630;28;20049;-30
2022/05/27 15:40:08;;;;;;;6.57;2.05;;;;;;;;;;5054433;28;20041;-29
2022/05/27 15:42:47;;;;;;;7.10;2.30;;;;;;;;;;5054509;28;20073;-30
2022/05/27 15:45:14;;;;;;;3.50;1.80;;;;;;;;;;5054559;28;20041;-30